Archiv-/Tagesdaten

--Timestamp---	Temp	Chill	HIndex	Humid	Dewpt	Wind	HiWind	WindDir	Rain	Barom	        Solar	ET	UV
--------------	----	-----	------	-----	-----	----	------	-------	----	-----	        -----	--	--
20081006 00:05	7.9	7.9	7.9	78	4.3	0	6	247	0.00	1013.210	0	0.000	0
20081006 00:10	7.9	7.9	7.9	77	4.2	3	6	180	0.00	1013.278	0	0.000	0
20081006 00:15	8.0	8.0	8.0	77	4.2	3	8	202	0.00	1013.244	0	0.000	0
20081006 00:20	8.1	8.1	8.1	77	4.3	2	5	157	0.00	1013.177	0	0.000	0
20081006 00:25	8.1	8.1	8.1	77	4.3	0	5	157	0.00	1013.143	0	0.000	0
20081006 00:30	8.1	8.1	8.1	78	4.5	2	6	157	0.00	1013.007	0	0.000	0
20081006 00:35	8.1	8.1	8.1	79	4.6	2	5	157	0.00	1012.872	0	0.000	0
20081006 00:40	8.1	8.1	8.1	79	4.6	2	6	157	0.00	1012.872	0	0.000	0
20081006 00:45	8.1	8.1	8.1	78	4.5	2	8	157	0.00	1012.872	0	0.000	0
20081006 00:50	8.1	8.1	8.1	78	4.5	2	5	157	0.00	1012.804	0	0.000	0
20081006 00:55	8.2	8.2	8.2	78	4.6	2	8	180	0.00	1012.770	0	0.000	0
20081006 01:00	8.2	8.2	8.2	78	4.6	2	8	157	0.00	1012.838	0	0.020	0
20081006 01:05	8.3	8.3	8.3	77	4.5	2	8	180	0.00	1012.499	0	0.000	0
20081006 01:10	8.4	8.4	8.4	76	4.4	2	5	180	0.00	1012.533	0	0.000	0
20081006 01:15	8.5	8.5	8.5	76	4.5	2	5	157	0.00	1012.635	0	0.000	0
20081006 01:20	8.7	8.7	8.7	75	4.5	2	3	157	0.00	1012.635	0	0.000	0
20081006 01:25	8.7	8.7	8.7	75	4.5	2	6	180	0.00	1012.702	0	0.000	0
20081006 01:30	8.7	8.7	8.7	76	4.7	2	8	180	0.00	1012.669	0	0.000	0
20081006 01:35	8.7	8.7	8.7	75	4.5	2	8	180	0.00	1012.669	0	0.000	0
20081006 01:40	8.8	8.8	8.8	75	4.6	5	8	202	0.00	1012.838	0	0.000	0
20081006 01:45	8.9	8.2	8.9	75	4.8	6	11	202	0.00	1012.906	0	0.000	0
20081006 01:50	8.9	7.8	8.9	75	4.8	8	16	202	0.00	1012.906	0	0.000	0
20081006 01:55	8.9	8.2	8.9	75	4.8	6	11	202	0.00	1012.906	0	0.000	0
20081006 02:00	8.9	8.9	8.9	75	4.8	5	11	202	0.00	1013.007	0	0.020	0
20081006 02:05	8.9	8.9	8.9	75	4.8	5	10	225	0.00	1012.906	0	0.000	0
20081006 02:10	8.9	7.8	8.9	75	4.8	8	16	202	0.00	1012.872	0	0.000	0
20081006 02:15	9.1	7.9	9.1	75	4.9	8	18	202	0.00	1012.872	0	0.000	0
20081006 02:20	9.1	8.3	9.1	74	4.7	6	14	202	0.00	1012.872	0	0.000	0
20081006 02:25	9.2	9.2	9.2	75	5.0	5	10	202	0.00	1012.736	0	0.000	0
20081006 02:30	9.2	8.4	9.2	75	5.0	6	13	225	0.00	1012.872	0	0.000	0
20081006 02:35	9.2	9.2	9.2	74	4.8	5	11	225	0.00	1012.872	0	0.000	0
20081006 02:40	9.3	8.5	9.3	74	4.9	6	14	225	0.00	1012.770	0	0.000	0
20081006 02:45	9.3	8.5	9.3	73	4.7	6	11	225	0.00	1012.804	0	0.000	0
20081006 02:50	9.3	8.6	9.3	73	4.7	6	18	202	0.00	1012.872	0	0.000	0
20081006 02:55	9.3	9.3	9.3	74	4.9	5	11	202	0.00	1012.804	0	0.000	0
20081006 03:00	9.3	8.5	9.3	73	4.7	6	16	202	0.00	1012.872	0	0.020	0
20081006 03:05	9.2	8.5	9.2	73	4.6	6	18	202	0.00	1013.041	0	0.000	0
20081006 03:10	9.2	8.4	9.2	72	4.4	6	18	202	0.00	1013.041	0	0.000	0
20081006 03:15	9.3	8.2	9.3	72	4.5	8	16	180	0.00	1013.007	0	0.000	0
20081006 03:20	9.3	8.6	9.3	72	4.5	6	14	202	0.00	1013.075	0	0.000	0
20081006 03:25	9.3	8.6	9.3	72	4.5	6	19	202	0.00	1013.007	0	0.000	0
20081006 03:30	9.3	8.6	9.3	72	4.5	6	14	225	0.00	1012.973	0	0.000	0
20081006 03:35	9.2	8.5	9.2	72	4.4	6	16	225	0.00	1012.973	0	0.000	0
20081006 03:40	9.2	9.2	9.2	72	4.4	5	14	225	0.00	1013.075	0	0.000	0
20081006 03:45	9.1	9.1	9.1	72	4.3	5	10	247	0.00	1013.109	0	0.000	0
20081006 03:50	9.1	9.1	9.1	73	4.5	5	11	225	0.00	1013.143	0	0.000	0
20081006 03:55	9.1	9.1	9.1	73	4.5	5	8	247	0.00	1013.210	0	0.000	0
20081006 04:00	9.2	9.2	9.2	73	4.6	5	8	225	0.00	1013.244	0	0.020	0
20081006 04:05	9.2	9.2	9.2	73	4.6	5	8	202	0.00	1013.109	0	0.000	0
20081006 04:10	9.3	9.3	9.3	73	4.7	3	8	225	0.00	1013.210	0	0.000	0
20081006 04:15	9.3	9.3	9.3	76	5.3	3	10	225	0.20	1013.244	0	0.000	0
20081006 04:20	9.6	8.9	9.6	81	6.5	6	18	270	0.40	1013.380	0	0.000	0
20081006 04:25	9.6	9.6	9.6	85	7.2	5	14	247	0.00	1013.177	0	0.000	0
20081006 04:30	9.7	9.7	9.7	86	7.4	5	14	247	0.20	1013.041	0	0.000	0
20081006 04:35	9.8	9.8	9.8	87	7.7	3	10	247	0.00	1012.906	0	0.000	0
20081006 04:40	9.9	9.9	9.9	87	7.8	5	14	225	0.00	1012.906	0	0.000	0
20081006 04:45	10.0	10.0	10.0	89	8.3	5	14	225	0.00	1012.973	0	0.000	0
20081006 04:50	10.2	10.2	10.2	85	7.8	6	18	225	0.00	1012.939	0	0.000	0
20081006 04:55	10.3	10.3	10.3	85	7.9	6	11	247	0.00	1012.939	0	0.000	0
20081006 05:00	10.4	10.4	10.4	84	7.9	6	24	247	0.00	1013.007	0	0.020	0
20081006 05:05	10.6	10.6	10.6	84	8.0	5	11	247	0.00	1013.278	0	0.000	0
20081006 05:10	10.8	10.8	10.8	82	7.8	8	21	247	0.00	1013.210	0	0.000	0
20081006 05:15	11.0	11.0	11.0	81	7.9	10	18	247	0.00	1013.109	0	0.000	0
20081006 05:20	11.1	11.1	11.1	80	7.8	8	16	270	0.00	1013.075	0	0.000	0
20081006 05:25	11.3	11.3	11.3	78	7.6	10	23	247	0.00	1013.109	0	0.000	0
20081006 05:30	11.5	11.5	11.5	77	7.6	10	21	247	0.00	1013.177	0	0.000	0
20081006 05:35	11.6	11.6	11.6	76	7.5	6	16	247	0.00	1013.143	0	0.000	0
20081006 05:40	11.7	11.7	11.7	75	7.4	13	26	247	0.00	1013.143	0	0.000	0
20081006 05:45	12.0	12.0	12.0	74	7.5	13	23	247	0.00	1012.973	0	0.000	0
20081006 05:50	12.1	12.1	12.1	73	7.4	14	27	247	0.00	1013.075	0	0.000	0
20081006 05:55	12.2	12.2	12.2	72	7.3	13	29	247	0.00	1013.075	0	0.000	0
20081006 06:00	12.2	12.2	12.2	72	7.3	11	23	247	0.00	1013.041	0	0.020	0
20081006 06:05	12.2	12.2	12.2	72	7.3	13	31	247	0.00	1013.278	0	0.000	0
20081006 06:10	12.3	12.3	12.3	72	7.4	13	31	247	0.00	1013.278	0	0.000	0
20081006 06:15	12.3	12.3	12.3	72	7.4	11	27	247	0.00	1013.278	0	0.000	0
20081006 06:20	12.4	12.4	12.4	71	7.3	11	21	247	0.00	1013.346	0	0.000	0
20081006 06:25	12.4	12.4	12.4	71	7.3	13	26	247	0.00	1013.549	0	0.000	0
20081006 06:30	12.4	12.4	12.4	71	7.3	13	24	247	0.00	1013.583	0	0.000	0
20081006 06:35	12.4	12.4	12.4	71	7.3	10	23	247	0.00	1013.651	0	0.000	0
20081006 06:40	12.4	12.4	12.4	71	7.3	11	24	247	0.00	1013.684	0	0.000	0
20081006 06:45	12.3	12.3	12.3	71	7.2	10	23	247	0.00	1013.718	0	0.000	0
20081006 06:50	12.4	12.4	12.4	71	7.3	11	26	247	0.00	1013.752	0	0.000	0
20081006 06:55	12.5	12.5	12.5	71	7.4	13	24	247	0.00	1013.684	0	0.000	0
20081006 07:00	12.4	12.4	12.4	72	7.5	8	18	247	0.00	1013.820	0	0.040	0
20081006 07:05	12.4	12.4	12.4	71	7.3	11	24	247	0.00	1014.057	0	0.000	0
20081006 07:10	12.4	12.4	12.4	71	7.3	11	21	247	0.00	1014.057	0	0.000	0
20081006 07:15	12.4	12.4	12.4	71	7.3	8	19	247	0.00	1014.091	0	0.000	0
20081006 07:20	12.4	12.4	12.4	71	7.3	10	23	247	0.00	1014.125	0	0.000	0
20081006 07:25	12.4	12.4	12.4	70	7.1	11	26	247	0.00	1014.057	0	0.000	0
20081006 07:30	12.6	12.6	12.6	70	7.2	11	24	247	0.00	1013.989	0	0.000	0
20081006 07:35	12.6	12.6	12.6	70	7.2	11	26	247	0.00	1014.091	5	0.000	0
20081006 07:40	12.5	12.5	12.5	70	7.2	13	27	247	0.00	1014.125	10	0.000	0
20081006 07:45	12.5	12.5	12.5	70	7.2	11	26	247	0.00	1014.125	14	0.000	0
20081006 07:50	12.6	12.6	12.6	70	7.3	13	29	270	0.00	1014.260	17	0.000	0
20081006 07:55	12.6	12.6	12.6	70	7.3	11	21	247	0.00	1014.294	19	0.000	0
20081006 08:00	12.6	12.6	12.6	71	7.4	11	21	247	0.00	1014.328	21	0.040	0
20081006 08:05	12.6	12.6	12.6	70	7.2	11	23	225	0.00	1014.362	33	0.000	0
20081006 08:10	12.7	12.7	12.7	70	7.3	13	27	247	0.00	1014.396	39	0.000	0
20081006 08:15	12.8	12.8	12.8	71	7.7	11	24	270	0.00	1014.565	58	0.000	0
20081006 08:20	12.9	12.9	12.9	71	7.8	13	31	247	0.00	1014.497	45	0.000	0
20081006 08:25	13.1	13.1	13.1	71	7.9	11	21	247	0.00	1014.666	45	0.000	0
20081006 08:30	13.1	13.1	13.1	71	7.9	10	24	270	0.00	1014.802	40	0.000	0
20081006 08:35	13.1	13.1	13.1	70	7.7	14	23	247	0.00	1014.734	32	0.000	0
20081006 08:40	13.2	13.2	13.2	70	7.8	13	23	247	0.00	1014.904	34	0.000	0
20081006 08:45	13.2	13.2	13.2	70	7.9	10	19	247	0.00	1014.971	53	0.000	0
20081006 08:50	13.3	13.3	13.3	70	7.9	11	23	247	0.00	1015.005	68	0.000	0
20081006 08:55	13.3	13.3	13.3	70	8.0	11	24	247	0.00	1015.005	73	0.000	0
20081006 09:00	13.4	13.4	13.4	70	8.0	10	19	247	0.00	1015.174	86	0.060	0
20081006 09:05	13.4	13.4	13.4	71	8.3	8	18	247	0.00	1015.411	77	0.000	0
20081006 09:10	13.4	13.4	13.4	71	8.3	8	23	247	0.00	1015.411	85	0.000	0
20081006 09:15	13.4	13.4	13.4	71	8.3	6	18	270	0.00	1015.479	104	0.000	0
20081006 09:20	13.5	13.5	13.5	71	8.3	8	16	247	0.00	1015.513	91	0.000	0
20081006 09:25	13.6	13.6	13.6	70	8.2	8	18	270	0.00	1015.581	95	0.000	1
20081006 09:30	13.7	13.7	13.7	70	8.3	8	21	247	0.00	1015.513	122	0.000	1
20081006 09:35	13.8	13.8	13.8	70	8.4	6	18	247	0.00	1015.649	142	0.000	1
20081006 09:40	13.9	13.9	13.9	70	8.5	8	19	247	0.00	1015.716	115	0.000	1
20081006 09:45	14.0	14.0	14.0	68	8.2	11	23	247	0.00	1015.852	105	0.000	1
20081006 09:50	14.0	14.0	14.0	69	8.4	10	21	247	0.00	1015.852	88	0.000	1
20081006 09:55	14.1	14.1	14.1	68	8.2	10	26	247	0.00	1015.784	168	0.000	1
20081006 10:00	14.3	14.3	14.3	68	8.5	11	24	247	0.00	1015.919	139	0.080	1
20081006 10:05	14.3	14.3	14.3	68	8.5	10	24	247	0.00	1015.784	113	0.000	1
20081006 10:10	14.4	14.4	14.4	67	8.3	10	23	247	0.00	1015.784	133	0.000	1
20081006 10:15	14.4	14.4	14.4	67	8.3	11	24	247	0.00	1015.852	86	0.000	1
20081006 10:20	14.6	14.6	14.6	68	8.7	11	21	247	0.00	1015.784	116	0.000	1
20081006 10:25	14.9	14.9	14.9	66	8.6	11	27	247	0.00	1015.750	93	0.000	1
20081006 10:30	15.0	15.0	15.0	65	8.5	13	29	247	0.00	1015.784	79	0.000	1
20081006 10:35	15.0	15.0	15.0	66	8.7	10	24	247	0.00	1015.852	68	0.000	1
20081006 10:40	15.3	15.3	15.3	67	9.2	10	21	270	0.00	1015.919	52	0.000	0
20081006 10:45	15.5	15.5	15.5	66	9.2	11	24	270	0.00	1015.818	56	0.000	1
20081006 10:50	15.7	15.7	15.7	65	9.1	10	18	247	0.00	1015.852	83	0.000	1
20081006 10:55	15.7	15.7	15.7	65	9.2	8	18	270	0.00	1015.919	171	0.000	1
20081006 11:00	15.7	15.7	15.7	65	9.2	14	32	247	0.00	1015.919	140	0.080	1
20081006 11:05	15.7	15.7	15.7	64	8.9	14	32	247	0.00	1016.190	160	0.000	2
20081006 11:10	15.8	15.8	15.8	64	9.0	14	26	270	0.00	1016.089	88	0.000	2
20081006 11:15	16.0	16.0	16.0	63	9.0	14	27	270	0.00	1016.089	115	0.000	2
20081006 11:20	16.2	16.2	16.2	64	9.3	11	23	270	0.00	1016.089	88	0.000	2
20081006 11:25	16.3	16.3	16.3	62	9.0	16	32	247	0.00	1016.089	528	0.000	2
20081006 11:30	16.6	16.6	16.6	62	9.2	14	27	270	0.00	1015.919	545	0.000	2
20081006 11:35	16.7	16.7	16.7	61	9.1	16	26	270	0.00	1015.886	291	0.000	2
20081006 11:40	16.7	16.7	16.7	61	9.2	18	34	270	0.00	1015.886	367	0.000	2
20081006 11:45	16.9	16.9	16.9	61	9.3	16	31	247	0.00	1015.784	433	0.000	3
20081006 11:50	16.8	16.8	16.8	61	9.3	18	34	270	0.00	1016.224	292	0.000	2
20081006 11:55	16.7	16.7	16.7	62	9.4	18	35	247	0.00	1016.055	262	0.000	2
20081006 12:00	16.7	16.7	16.7	62	9.3	16	32	247	0.00	1015.953	227	0.180	2
20081006 12:05	16.4	16.4	16.4	63	9.3	19	37	270	0.00	1016.156	212	0.000	2
20081006 12:10	16.3	16.3	16.3	64	9.5	18	34	270	0.00	1016.089	287	0.000	2
20081006 12:15	16.3	16.3	16.3	65	9.7	14	32	247	0.00	1016.089	245	0.000	2
20081006 12:20	16.6	16.6	16.6	63	9.5	13	23	270	0.00	1016.055	303	0.000	2
20081006 12:25	16.8	16.8	16.8	61	9.2	11	29	270	0.00	1016.190	278	0.000	2
20081006 12:30	16.7	16.7	16.7	61	9.2	16	31	270	0.00	1016.326	207	0.000	2
20081006 12:35	16.6	16.6	16.6	62	9.3	14	29	270	0.00	1016.326	215	0.000	2
20081006 12:40	16.7	16.7	16.7	63	9.6	13	29	270	0.00	1016.224	426	0.000	3
20081006 12:45	17.2	17.2	17.2	61	9.6	18	35	247	0.00	1016.123	555	0.000	3
20081006 12:50	17.4	17.4	17.4	61	9.8	19	42	247	0.00	1016.089	696	0.000	3
20081006 12:55	17.5	17.5	17.5	59	9.4	18	27	270	0.00	1016.190	686	0.000	3
20081006 13:00	17.7	17.7	17.7	58	9.3	18	34	270	0.00	1016.055	657	0.220	3
20081006 13:05	17.7	17.7	17.7	57	9.0	19	34	270	0.00	1016.021	348	0.000	3
20081006 13:10	17.7	17.7	17.7	58	9.3	16	27	270	0.00	1015.886	387	0.000	3
20081006 13:15	17.7	17.7	17.7	59	9.6	14	29	292	0.00	1015.919	275	0.000	2
20081006 13:20	17.5	17.5	17.5	58	9.1	21	35	270	0.00	1015.953	225	0.000	2
20081006 13:25	17.3	17.3	17.3	59	9.2	19	35	270	0.00	1016.123	221	0.000	2
20081006 13:30	17.2	17.2	17.2	60	9.3	14	27	270	0.00	1016.055	210	0.000	2
20081006 13:35	17.1	17.1	17.1	61	9.5	18	32	270	0.00	1016.055	246	0.000	2
20081006 13:40	17.2	17.2	17.2	61	9.6	10	21	270	0.00	1016.055	297	0.000	3
20081006 13:45	17.4	17.4	17.4	60	9.6	13	26	270	0.00	1016.123	257	0.000	2
20081006 13:50	17.4	17.4	17.4	61	9.8	13	27	270	0.00	1016.156	355	0.000	3
20081006 13:55	17.6	17.6	17.6	60	9.7	16	29	247	0.00	1015.919	425	0.000	3
20081006 14:00	17.5	17.5	17.5	60	9.6	14	35	247	0.00	1016.021	190	0.220	3
20081006 14:05	17.4	17.4	17.4	60	9.6	14	32	270	0.00	1016.021	243	0.000	2
20081006 14:10	17.3	17.3	17.3	60	9.4	13	24	270	0.00	1015.987	208	0.000	2
20081006 14:15	17.6	17.6	17.6	62	10.2	10	19	270	0.00	1015.886	611	0.000	3
20081006 14:20	17.9	17.9	17.9	58	9.6	16	32	247	0.00	1015.886	237	0.000	3
20081006 14:25	18.1	18.1	18.1	55	8.9	14	34	247	0.00	1015.987	384	0.000	2
20081006 14:30	17.8	17.8	17.8	57	9.1	16	29	270	0.00	1015.953	150	0.000	2
20081006 14:35	17.4	17.4	17.4	58	9.0	16	27	270	0.00	1015.919	182	0.000	2
20081006 14:40	17.3	17.3	17.3	59	9.2	11	21	247	0.00	1015.987	217	0.000	2
20081006 14:45	17.4	17.4	17.4	60	9.6	11	21	270	0.00	1015.919	330	0.000	2
20081006 14:50	17.7	17.7	17.7	57	9.1	14	29	247	0.00	1015.953	319	0.000	2
20081006 14:55	17.6	17.6	17.6	57	8.9	16	32	270	0.00	1016.021	153	0.000	2
20081006 15:00	17.6	17.6	17.6	56	8.7	14	32	270	0.00	1016.055	302	0.200	2
20081006 15:05	17.4	17.4	17.4	57	8.8	14	32	247	0.00	1016.055	144	0.000	1
20081006 15:10	17.2	17.2	17.2	57	8.6	19	34	270	0.00	1016.055	139	0.000	1
20081006 15:15	17.1	17.1	17.1	56	8.3	18	31	270	0.00	1016.021	163	0.000	1
20081006 15:20	17.0	17.0	17.0	57	8.4	16	31	247	0.00	1015.987	132	0.000	1
20081006 15:25	17.0	17.0	17.0	58	8.7	11	21	247	0.00	1016.055	154	0.000	1
20081006 15:30	17.3	17.3	17.3	57	8.7	18	31	270	0.00	1016.021	199	0.000	1
20081006 15:35	17.6	17.6	17.6	57	8.9	19	39	270	0.00	1015.987	228	0.000	1
20081006 15:40	17.6	17.6	17.6	56	8.7	18	26	270	0.00	1015.886	119	0.000	1
20081006 15:45	17.3	17.3	17.3	57	8.7	16	26	270	0.00	1015.953	134	0.000	1
20081006 15:50	17.2	17.2	17.2	59	9.1	10	21	247	0.00	1015.953	158	0.000	1
20081006 15:55	17.4	17.4	17.4	58	9.0	13	23	270	0.00	1016.021	309	0.000	1
20081006 16:00	17.8	17.8	17.8	59	9.7	13	29	270	0.00	1016.055	152	0.140	1
20081006 16:05	18.0	18.0	18.0	56	9.1	14	26	270	0.00	1015.953	77	0.000	1
20081006 16:10	17.9	17.9	17.9	57	9.3	11	21	270	0.00	1015.987	64	0.000	1
20081006 16:15	18.0	18.0	18.0	55	8.8	11	26	247	0.00	1015.919	73	0.000	1
20081006 16:20	17.9	17.9	17.9	54	8.5	13	23	270	0.00	1016.021	101	0.000	1
20081006 16:25	17.8	17.8	17.8	55	8.6	13	24	270	0.00	1015.953	80	0.000	0
20081006 16:30	17.6	17.6	17.6	57	8.9	11	19	270	0.00	1015.919	140	0.000	1
20081006 16:35	17.6	17.6	17.6	57	8.9	11	19	270	0.00	1015.919	134	0.000	1
20081006 16:40	17.6	17.6	17.6	57	9.0	11	19	270	0.00	1015.919	98	0.000	1
20081006 16:45	17.6	17.6	17.6	56	8.7	11	21	270	0.00	1015.919	72	0.000	1
20081006 16:50	17.3	17.3	17.3	57	8.7	8	19	270	0.00	1016.021	54	0.000	0
20081006 16:55	17.1	17.1	17.1	58	8.7	8	16	270	0.00	1016.055	43	0.000	0
20081006 17:00	16.8	16.8	16.8	59	8.8	8	14	270	0.00	1016.190	56	0.080	0
20081006 17:05	16.8	16.8	16.8	58	8.5	11	19	270	0.00	1015.987	69	0.000	0
20081006 17:10	16.9	16.9	16.9	58	8.6	10	16	270	0.00	1015.987	73	0.000	0
20081006 17:15	17.1	17.1	17.1	57	8.5	13	24	270	0.00	1016.055	86	0.000	0
20081006 17:20	17.2	17.2	17.2	58	8.9	13	23	270	0.00	1015.953	58	0.000	0
20081006 17:25	17.2	17.2	17.2	58	8.9	10	19	270	0.00	1015.852	39	0.000	0
20081006 17:30	17.1	17.1	17.1	59	9.0	11	21	270	0.00	1015.886	40	0.000	0
20081006 17:35	17.0	17.0	17.0	60	9.2	8	16	270	0.00	1016.021	37	0.000	0
20081006 17:40	16.9	16.9	16.9	60	9.1	8	16	247	0.00	1016.021	42	0.000	0
20081006 17:45	16.8	16.8	16.8	61	9.3	6	18	270	0.00	1016.021	45	0.000	0
20081006 17:50	16.7	16.7	16.7	61	9.2	6	14	270	0.00	1015.987	30	0.000	0
20081006 17:55	16.6	16.6	16.6	61	9.0	8	14	270	0.00	1016.055	23	0.000	0
20081006 18:00	16.3	16.3	16.3	62	9.0	5	8	270	0.00	1016.190	19	0.060	0
20081006 18:05	16.1	16.1	16.1	64	9.2	6	11	270	0.00	1016.360	16	0.000	0
20081006 18:10	15.9	15.9	15.9	64	9.1	5	11	270	0.00	1016.360	11	0.000	0
20081006 18:15	15.8	15.8	15.8	65	9.2	5	8	270	0.00	1016.360	10	0.000	0
20081006 18:20	15.7	15.7	15.7	66	9.3	2	5	270	0.00	1016.292	7	0.000	0
20081006 18:25	15.6	15.6	15.6	66	9.3	3	6	270	0.00	1016.326	1	0.000	0
20081006 18:30	15.6	15.6	15.6	67	9.4	2	5	270	0.00	1016.427	0	0.000	0
20081006 18:35	15.5	15.5	15.5	67	9.4	2	5	270	0.00	1016.427	0	0.000	0
20081006 18:40	15.4	15.4	15.4	68	9.6	2	3	270	0.00	1016.597	0	0.000	0
20081006 18:45	15.3	15.3	15.3	68	9.5	2	6	270	0.00	1016.563	0	0.000	0
20081006 18:50	15.3	15.3	15.3	69	9.6	0	6	270	0.00	1016.597	0	0.000	0
20081006 18:55	15.2	15.2	15.2	69	9.6	2	5	270	0.00	1016.732	0	0.000	0
20081006 19:00	15.1	15.1	15.1	69	9.4	2	6	270	0.00	1016.766	0	0.020	0
20081006 19:05	15.0	15.0	15.0	69	9.4	2	6	270	0.00	1016.597	0	0.000	0
20081006 19:10	15.0	15.0	15.0	69	9.4	3	8	270	0.00	1016.664	0	0.000	0
20081006 19:15	15.0	15.0	15.0	70	9.6	3	10	270	0.00	1016.664	0	0.000	0
20081006 19:20	15.0	15.0	15.0	70	9.6	5	8	270	0.00	1016.732	0	0.000	0
20081006 19:25	15.0	15.0	15.0	70	9.6	5	10	292	0.00	1016.800	0	0.000	0
20081006 19:30	14.9	14.9	14.9	70	9.5	6	10	270	0.00	1016.868	0	0.000	0
20081006 19:35	14.9	14.9	14.9	71	9.7	3	10	270	0.00	1016.868	0	0.000	0
20081006 19:40	14.8	14.8	14.8	71	9.6	5	8	247	0.00	1016.935	0	0.000	0
20081006 19:45	14.8	14.8	14.8	71	9.6	3	10	270	0.00	1016.935	0	0.000	0
20081006 19:50	14.7	14.7	14.7	72	9.7	5	8	247	0.00	1017.105	0	0.000	0
20081006 19:55	14.5	14.5	14.5	72	9.5	3	8	247	0.00	1017.206	0	0.000	0
20081006 20:00	14.4	14.4	14.4	73	9.6	3	6	247	0.00	1017.206	0	0.020	0
20081006 20:05	14.3	14.3	14.3	74	9.8	2	5	247	0.00	1017.172	0	0.000	0
20081006 20:10	14.2	14.2	14.2	75	9.9	2	5	247	0.00	1017.308	0	0.000	0
20081006 20:15	14.2	14.2	14.2	76	10.0	2	5	247	0.00	1017.409	0	0.000	0
20081006 20:20	14.1	14.1	14.1	76	9.9	2	5	247	0.00	1017.545	0	0.000	0
20081006 20:25	14.0	14.0	14.0	77	10.0	2	6	247	0.00	1017.545	0	0.000	0
20081006 20:30	13.9	13.9	13.9	77	10.0	3	8	247	0.00	1017.613	0	0.000	0
20081006 20:35	14.0	14.0	14.0	76	9.8	5	14	247	0.00	1017.579	0	0.000	0
20081006 20:40	14.2	14.2	14.2	76	10.0	8	18	247	0.00	1017.545	0	0.000	0
20081006 20:45	14.3	14.3	14.3	76	10.1	6	11	247	0.00	1017.613	0	0.000	0
20081006 20:50	14.3	14.3	14.3	76	10.2	5	11	247	0.00	1017.647	0	0.000	0
20081006 20:55	14.3	14.3	14.3	76	10.1	5	10	247	0.00	1017.680	0	0.000	0
20081006 21:00	14.2	14.2	14.2	77	10.2	3	8	247	0.00	1017.782	0	0.020	0
20081006 21:05	14.2	14.2	14.2	77	10.2	3	6	247	0.00	1017.613	0	0.000	0
20081006 21:10	14.2	14.2	14.2	76	10.0	6	16	225	0.00	1017.714	0	0.000	0
20081006 21:15	14.2	14.2	14.2	76	10.0	8	19	270	0.00	1017.782	0	0.000	0
20081006 21:20	14.2	14.2	14.2	78	10.4	6	19	292	0.00	1017.782	0	0.000	0
20081006 21:25	14.1	14.1	14.1	78	10.3	5	14	292	0.00	1017.951	0	0.000	0
20081006 21:30	14.0	14.0	14.0	79	10.4	6	11	270	0.00	1018.019	0	0.000	0
20081006 21:35	13.9	13.9	13.9	79	10.4	5	10	292	0.00	1018.019	0	0.000	0
20081006 21:40	13.9	13.9	13.9	79	10.3	5	11	270	0.00	1018.019	0	0.000	0
20081006 21:45	13.9	13.9	13.9	78	10.2	5	8	270	0.00	1018.053	0	0.000	0
20081006 21:50	13.9	13.9	13.9	79	10.4	3	6	270	0.00	1018.154	0	0.000	0
20081006 21:55	13.9	13.9	13.9	79	10.3	3	6	247	0.00	1018.087	0	0.000	0
20081006 22:00	13.8	13.8	13.8	79	10.3	2	5	247	0.00	1018.121	0	0.020	0
20081006 22:05	13.8	13.8	13.8	79	10.2	2	5	247	0.00	1017.985	0	0.000	0
20081006 22:10	13.7	13.7	13.7	79	10.1	2	5	247	0.00	1018.019	0	0.000	0
20081006 22:15	13.6	13.6	13.6	80	10.2	2	3	247	0.00	1017.951	0	0.000	0
20081006 22:20	13.6	13.6	13.6	80	10.2	3	10	247	0.00	1018.053	0	0.000	0
20081006 22:25	13.5	13.5	13.5	80	10.1	5	8	247	0.00	1018.121	0	0.000	0
20081006 22:30	13.4	13.4	13.4	80	10.1	3	8	247	0.00	1018.154	0	0.000	0
20081006 22:35	13.3	13.3	13.3	81	10.1	2	6	247	0.00	1017.985	0	0.000	0
20081006 22:40	13.3	13.3	13.3	81	10.1	0	5	247	0.00	1017.985	0	0.000	0
20081006 22:45	13.2	13.2	13.2	81	10.0	0	5	247	0.00	1018.019	0	0.000	0
20081006 22:50	13.0	13.0	13.0	82	10.0	2	5	247	0.00	1018.154	0	0.000	0
20081006 22:55	12.8	12.8	12.8	82	9.8	2	6	247	0.00	1018.222	0	0.000	0
20081006 23:00	12.7	12.7	12.7	82	9.7	2	8	247	0.00	1018.222	0	0.020	0
20081006 23:05	12.6	12.6	12.6	83	9.7	3	6	247	0.00	1018.087	0	0.000	0
20081006 23:10	12.4	12.4	12.4	83	9.6	3	6	247	0.00	1018.121	0	0.000	0
20081006 23:15	12.3	12.3	12.3	83	9.5	2	3	247	0.00	1018.188	0	0.000	0
20081006 23:20	12.2	12.2	12.2	84	9.5	2	5	247	0.00	1018.121	0	0.000	0
20081006 23:25	12.1	12.1	12.1	84	9.4	2	3	247	0.00	1018.053	0	0.000	0
20081006 23:30	12.0	12.0	12.0	85	9.6	2	5	247	0.00	1018.121	0	0.000	0
20081006 23:35	11.9	11.9	11.9	85	9.4	0	3	247	0.00	1018.222	0	0.000	0
20081006 23:40	11.8	11.8	11.8	85	9.3	0	5	247	0.00	1018.256	0	0.000	0
20081006 23:45	11.7	11.7	11.7	85	9.3	2	5	247	0.00	1018.256	0	0.000	0
20081006 23:50	11.7	11.7	11.7	86	9.4	0	3	247	0.00	1018.256	0	0.000	0
20081006 23:55	11.7	11.7	11.7	86	9.4	2	5	247	0.00	1018.222	0	0.000	0
20081006 24:00	11.7	11.7	11.7	86	9.4	0	3	247	0.00	1018.222	0	0.020	0



Please note the license to use and transfer of this data:
http://creativecommons.org/licenses/by-nc-sa/3.0/deed.en

Bitte beachten sie die Lizenz zur Verwertung und Weitergabe der Daten:
http://creativecommons.org/licenses/by-nc-sa/3.0/deed.de

zurück zur Übersicht der Archivdaten (Monats und Tagesdaten)

Cookies helfen bei der Bereitstellung von Inhalten. Durch die Nutzung dieser Seiten erklärst du dich damit einverstanden, dass Cookies auf deinem Rechner gespeichert werden. Weitere Information